Aérodrome :
LOGIN :

S'inscrire | Disclaimer

   EN    FR    IT 

 










Légende :    VFR   VFR Marginal   IFR   IFR Intensif   IFR Très Intensif
Visi : 
Plafond : 
>= 8 km
>= 3000ft
5 à 8 km
1000 à 3000 ft
1500m à 5 km
500 à 1000 ft
800 à 1500m
200 à 500 ft
< 800m
< 200 ft
Symboles :   Orages  Brouillard  Fortes neiges  Fortes précipitations  Vent > 20 kt
SIGMETs :   Divers  Orages  Givrage  Turbulence  Onde Orograph.  Cendres Volcan.






- Altitude de l'aérodrome : 376 ft


LHKE - Kecskemét

DERNIER METAR :
  • 230215Z 31005KT CAVOK 21/18 Q1013 NOSIG RMK BLU

METARs EXPIRÉS :
  • 230145Z 30003KT CAVOK 21/18 Q1013 NOSIG RMK BLU
  • 230115Z 30006KT CAVOK 21/18 Q1013 NOSIG RMK BLU
  • 230045Z 30006KT CAVOK 22/18 Q1013 NOSIG RMK BLU
  • 230015Z 29006KT CAVOK 22/18 Q1013 NOSIG RMK BLU
  • 222345Z 31005KT CAVOK 23/19 Q1013 NOSIG RMK BLU
  • 222315Z 31004KT CAVOK 24/19 Q1013 NOSIG RMK BLU
  • 222245Z 30005KT CAVOK 25/19 Q1013 NOSIG RMK BLU
  • 222215Z 29005KT CAVOK 26/19 Q1013 NOSIG RMK BLU
  • 222157Z VRB01KT 9999 FEW050TCU BKN100 26/19 Q1013 RESHRA BECMG CAVOK RMK BLU
  • 222145Z VRB02KT 9999 -SHRA FEW050TCU SCT073 BKN093 27/19 Q1013 BECMG NSW RMK BLU
  • 222115Z 34004KT 320V030 9999 FEW050TCU SCT073 BKN083 26/19 Q1014 TEMPO -SHRA RMK BLU

TAF TAF LHKE
Valide du 23 à 03h jusqu'au 23 à 12h UTC


230215Z 2303/2312 30006KT CAVOK
BECMG 2310/2312 34007KT 9999 FEW045TCU SCT055
TEMPO 2311/2312 VRB14G26KT 4000 SHRA TSRA SCT050CB SCT065TCU



MET'MAP, la Météo Aéronautique d'un coup d'oeil ! - Copyright ORBIFLY Décembre 2007 - Disclaimer

ORBIFLY MET'MAP TEAM :

Programmation & Développement : Alexandra Zaïnal
Sur une idée originale de : Baudouin d'Aumeries
Soutien technique & logistique : Manuel Goepfert
Assistance : Marc-Olivier Méhu




SOURCES & CREDITS :

   NOAA